sensor_id;sensor_type;location;lat;lon;timestamp;P1;P2;P0
49644;PMS5003;36494;50.730;-1.932;2023-08-12T00:00:30;10;10;
49644;PMS5003;36494;50.730;-1.932;2023-08-12T00:02:56;10;9;
49644;PMS5003;36494;50.730;-1.932;2023-08-12T00:05:22;9;9;
49644;PMS5003;36494;50.730;-1.932;2023-08-12T00:07:48;8;8;
49644;PMS5003;36494;50.730;-1.932;2023-08-12T00:10:13;8;7;
49644;PMS5003;36494;50.730;-1.932;2023-08-12T00:12:38;9;9;
49644;PMS5003;36494;50.730;-1.932;2023-08-12T00:15:04;10;9;
49644;PMS5003;36494;50.730;-1.932;2023-08-12T00:17:29;12;11;
49644;PMS5003;36494;50.730;-1.932;2023-08-12T00:19:55;10;9;
49644;PMS5003;36494;50.730;-1.932;2023-08-12T00:22:21;10;9;
49644;PMS5003;36494;50.730;-1.932;2023-08-12T00:24:47;9;9;
49644;PMS5003;36494;50.730;-1.932;2023-08-12T00:27:12;6;6;
49644;PMS5003;36494;50.730;-1.932;2023-08-12T00:29:38;8;8;
49644;PMS5003;36494;50.730;-1.932;2023-08-12T00:32:04;10;7;
49644;PMS5003;36494;50.730;-1.932;2023-08-12T00:34:29;8;7;
49644;PMS5003;36494;50.730;-1.932;2023-08-12T00:36:55;9;9;
49644;PMS5003;36494;50.730;-1.932;2023-08-12T00:39:20;11;10;
49644;PMS5003;36494;50.730;-1.932;2023-08-12T00:41:46;9;9;
49644;PMS5003;36494;50.730;-1.932;2023-08-12T00:44:12;11;10;
49644;PMS5003;36494;50.730;-1.932;2023-08-12T00:46:38;11;11;
49644;PMS5003;36494;50.730;-1.932;2023-08-12T00:49:03;8;8;
49644;PMS5003;36494;50.730;-1.932;2023-08-12T00:51:28;8;8;
49644;PMS5003;36494;50.730;-1.932;2023-08-12T00:53:54;7;6;
49644;PMS5003;36494;50.730;-1.932;2023-08-12T00:56:20;9;8;
49644;PMS5003;36494;50.730;-1.932;2023-08-12T00:58:45;11;11;
49644;PMS5003;36494;50.730;-1.932;2023-08-12T01:01:10;9;9;
49644;PMS5003;36494;50.730;-1.932;2023-08-12T01:03:36;8;8;
49644;PMS5003;36494;50.730;-1.932;2023-08-12T01:06:02;8;7;
49644;PMS5003;36494;50.730;-1.932;2023-08-12T01:08:28;8;8;
49644;PMS5003;36494;50.730;-1.932;2023-08-12T01:10:56;8;8;
49644;PMS5003;36494;50.730;-1.932;2023-08-12T01:13:21;10;10;
49644;PMS5003;36494;50.730;-1.932;2023-08-12T01:15:44;9;9;
49644;PMS5003;36494;50.730;-1.932;2023-08-12T01:18:09;8;8;
49644;PMS5003;36494;50.730;-1.932;2023-08-12T01:20:35;10;9;
49644;PMS5003;36494;50.730;-1.932;2023-08-12T01:25:26;13;12;
49644;PMS5003;36494;50.730;-1.932;2023-08-12T01:27:52;10;10;
49644;PMS5003;36494;50.730;-1.932;2023-08-12T01:30:17;11;10;
49644;PMS5003;36494;50.730;-1.932;2023-08-12T01:32:44;12;9;
49644;PMS5003;36494;50.730;-1.932;2023-08-12T01:35:09;9;9;
49644;PMS5003;36494;50.730;-1.932;2023-08-12T01:37:33;7;6;
49644;PMS5003;36494;50.730;-1.932;2023-08-12T01:40:00;8;7;
49644;PMS5003;36494;50.730;-1.932;2023-08-12T01:42:24;11;10;
49644;PMS5003;36494;50.730;-1.932;2023-08-12T01:44:49;11;10;
49644;PMS5003;36494;50.730;-1.932;2023-08-12T01:47:15;10;9;
49644;PMS5003;36494;50.730;-1.932;2023-08-12T01:49:41;9;9;
49644;PMS5003;36494;50.730;-1.932;2023-08-12T01:52:06;9;8;
49644;PMS5003;36494;50.730;-1.932;2023-08-12T01:54:32;8;8;
49644;PMS5003;36494;50.730;-1.932;2023-08-12T01:56:58;14;13;
49644;PMS5003;36494;50.730;-1.932;2023-08-12T01:59:23;10;10;
49644;PMS5003;36494;50.730;-1.932;2023-08-12T02:01:48;9;8;
49644;PMS5003;36494;50.730;-1.932;2023-08-12T02:04:14;10;9;
49644;PMS5003;36494;50.730;-1.932;2023-08-12T02:06:39;11;10;
49644;PMS5003;36494;50.730;-1.932;2023-08-12T02:09:05;12;11;
49644;PMS5003;36494;50.730;-1.932;2023-08-12T02:11:31;7;7;
49644;PMS5003;36494;50.730;-1.932;2023-08-12T02:13:56;10;10;
49644;PMS5003;36494;50.730;-1.932;2023-08-12T02:16:21;10;9;
49644;PMS5003;36494;50.730;-1.932;2023-08-12T02:18:47;12;12;
49644;PMS5003;36494;50.730;-1.932;2023-08-12T02:21:12;10;10;
49644;PMS5003;36494;50.730;-1.932;2023-08-12T02:23:37;10;8;
49644;PMS5003;36494;50.730;-1.932;2023-08-12T02:26:03;10;8;
49644;PMS5003;36494;50.730;-1.932;2023-08-12T02:28:29;10;8;
49644;PMS5003;36494;50.730;-1.932;2023-08-12T02:30:54;11;10;
49644;PMS5003;36494;50.730;-1.932;2023-08-12T02:33:19;10;9;
49644;PMS5003;36494;50.730;-1.932;2023-08-12T02:35:44;9;9;
49644;PMS5003;36494;50.730;-1.932;2023-08-12T02:38:09;11;10;
49644;PMS5003;36494;50.730;-1.932;2023-08-12T02:40:35;11;10;
49644;PMS5003;36494;50.730;-1.932;2023-08-12T02:43:01;7;7;
49644;PMS5003;36494;50.730;-1.932;2023-08-12T02:45:27;12;11;
49644;PMS5003;36494;50.730;-1.932;2023-08-12T02:47:52;10;9;
49644;PMS5003;36494;50.730;-1.932;2023-08-12T02:50:18;8;8;
49644;PMS5003;36494;50.730;-1.932;2023-08-12T02:52:44;7;7;
49644;PMS5003;36494;50.730;-1.932;2023-08-12T02:55:09;8;7;
49644;PMS5003;36494;50.730;-1.932;2023-08-12T02:57:35;10;9;
49644;PMS5003;36494;50.730;-1.932;2023-08-12T03:00:00;11;9;
49644;PMS5003;36494;50.730;-1.932;2023-08-12T03:02:26;8;8;
49644;PMS5003;36494;50.730;-1.932;2023-08-12T03:04:53;9;8;
49644;PMS5003;36494;50.730;-1.932;2023-08-12T03:07:18;10;8;
49644;PMS5003;36494;50.730;-1.932;2023-08-12T03:09:44;11;10;
49644;PMS5003;36494;50.730;-1.932;2023-08-12T03:12:09;9;9;
49644;PMS5003;36494;50.730;-1.932;2023-08-12T03:14:34;11;9;
49644;PMS5003;36494;50.730;-1.932;2023-08-12T03:17:00;12;10;
49644;PMS5003;36494;50.730;-1.932;2023-08-12T03:19:25;9;7;
49644;PMS5003;36494;50.730;-1.932;2023-08-12T03:21:51;9;8;
49644;PMS5003;36494;50.730;-1.932;2023-08-12T03:24:16;10;8;
49644;PMS5003;36494;50.730;-1.932;2023-08-12T03:26:41;12;11;
49644;PMS5003;36494;50.730;-1.932;2023-08-12T03:29:07;13;10;
49644;PMS5003;36494;50.730;-1.932;2023-08-12T03:31:32;10;9;
49644;PMS5003;36494;50.730;-1.932;2023-08-12T03:33:58;9;7;
49644;PMS5003;36494;50.730;-1.932;2023-08-12T03:36:23;12;11;
49644;PMS5003;36494;50.730;-1.932;2023-08-12T03:38:49;8;8;
49644;PMS5003;36494;50.730;-1.932;2023-08-12T03:41:14;10;9;
49644;PMS5003;36494;50.730;-1.932;2023-08-12T03:43:40;9;8;
49644;PMS5003;36494;50.730;-1.932;2023-08-12T03:46:06;8;7;
49644;PMS5003;36494;50.730;-1.932;2023-08-12T03:48:31;9;8;
49644;PMS5003;36494;50.730;-1.932;2023-08-12T03:50:57;10;8;
49644;PMS5003;36494;50.730;-1.932;2023-08-12T03:53:22;9;8;
49644;PMS5003;36494;50.730;-1.932;2023-08-12T03:55:48;11;9;
49644;PMS5003;36494;50.730;-1.932;2023-08-12T03:58:14;10;9;
49644;PMS5003;36494;50.730;-1.932;2023-08-12T04:00:40;8;7;
49644;PMS5003;36494;50.730;-1.932;2023-08-12T04:03:04;8;7;
49644;PMS5003;36494;50.730;-1.932;2023-08-12T04:05:29;10;9;
49644;PMS5003;36494;50.730;-1.932;2023-08-12T04:07:54;8;8;
49644;PMS5003;36494;50.730;-1.932;2023-08-12T04:10:20;12;9;
49644;PMS5003;36494;50.730;-1.932;2023-08-12T04:12:46;10;9;
49644;PMS5003;36494;50.730;-1.932;2023-08-12T04:15:12;8;7;
49644;PMS5003;36494;50.730;-1.932;2023-08-12T04:17:37;11;11;
49644;PMS5003;36494;50.730;-1.932;2023-08-12T04:20:02;8;6;
49644;PMS5003;36494;50.730;-1.932;2023-08-12T04:22:28;8;8;
49644;PMS5003;36494;50.730;-1.932;2023-08-12T04:24:53;10;8;
49644;PMS5003;36494;50.730;-1.932;2023-08-12T04:27:18;14;12;
49644;PMS5003;36494;50.730;-1.932;2023-08-12T04:29:45;8;7;
49644;PMS5003;36494;50.730;-1.932;2023-08-12T04:32:09;8;8;
49644;PMS5003;36494;50.730;-1.932;2023-08-12T04:34:35;8;8;
49644;PMS5003;36494;50.730;-1.932;2023-08-12T04:37:01;9;9;
49644;PMS5003;36494;50.730;-1.932;2023-08-12T04:39:26;9;7;
49644;PMS5003;36494;50.730;-1.932;2023-08-12T04:41:52;8;7;
49644;PMS5003;36494;50.730;-1.932;2023-08-12T04:44:17;7;7;
49644;PMS5003;36494;50.730;-1.932;2023-08-12T04:46:43;10;8;
49644;PMS5003;36494;50.730;-1.932;2023-08-12T04:49:08;9;8;
49644;PMS5003;36494;50.730;-1.932;2023-08-12T04:51:34;12;12;
49644;PMS5003;36494;50.730;-1.932;2023-08-12T04:53:59;11;10;
49644;PMS5003;36494;50.730;-1.932;2023-08-12T04:56:25;10;9;
49644;PMS5003;36494;50.730;-1.932;2023-08-12T04:58:51;8;8;
49644;PMS5003;36494;50.730;-1.932;2023-08-12T05:01:16;8;7;
49644;PMS5003;36494;50.730;-1.932;2023-08-12T05:03:42;11;10;
49644;PMS5003;36494;50.730;-1.932;2023-08-12T05:06:07;12;12;
49644;PMS5003;36494;50.730;-1.932;2023-08-12T05:08:32;7;7;
49644;PMS5003;36494;50.730;-1.932;2023-08-12T05:10:58;10;8;
49644;PMS5003;36494;50.730;-1.932;2023-08-12T05:13:23;9;8;
49644;PMS5003;36494;50.730;-1.932;2023-08-12T05:15:49;9;8;
49644;PMS5003;36494;50.730;-1.932;2023-08-12T05:18:14;14;10;
49644;PMS5003;36494;50.730;-1.932;2023-08-12T05:20:40;11;11;
49644;PMS5003;36494;50.730;-1.932;2023-08-12T05:23:06;12;11;
49644;PMS5003;36494;50.730;-1.932;2023-08-12T05:25:31;12;11;
49644;PMS5003;36494;50.730;-1.932;2023-08-12T05:27:57;11;10;
49644;PMS5003;36494;50.730;-1.932;2023-08-12T05:30:22;12;11;
49644;PMS5003;36494;50.730;-1.932;2023-08-12T05:32:48;10;9;
49644;PMS5003;36494;50.730;-1.932;2023-08-12T05:35:14;9;7;
49644;PMS5003;36494;50.730;-1.932;2023-08-12T05:37:39;10;10;
49644;PMS5003;36494;50.730;-1.932;2023-08-12T05:40:05;10;9;
49644;PMS5003;36494;50.730;-1.932;2023-08-12T05:42:30;8;8;
49644;PMS5003;36494;50.730;-1.932;2023-08-12T05:44:56;10;10;
49644;PMS5003;36494;50.730;-1.932;2023-08-12T05:47:22;10;10;
49644;PMS5003;36494;50.730;-1.932;2023-08-12T05:49:47;9;9;
49644;PMS5003;36494;50.730;-1.932;2023-08-12T05:52:13;10;9;
49644;PMS5003;36494;50.730;-1.932;2023-08-12T05:54:38;8;7;
49644;PMS5003;36494;50.730;-1.932;2023-08-12T05:57:04;12;10;
49644;PMS5003;36494;50.730;-1.932;2023-08-12T05:59:30;9;9;
49644;PMS5003;36494;50.730;-1.932;2023-08-12T06:01:55;10;10;
49644;PMS5003;36494;50.730;-1.932;2023-08-12T06:04:20;8;7;
49644;PMS5003;36494;50.730;-1.932;2023-08-12T06:06:46;6;5;
49644;PMS5003;36494;50.730;-1.932;2023-08-12T06:09:12;10;7;
49644;PMS5003;36494;50.730;-1.932;2023-08-12T06:11:37;13;11;
49644;PMS5003;36494;50.730;-1.932;2023-08-12T06:14:04;9;9;
49644;PMS5003;36494;50.730;-1.932;2023-08-12T06:16:29;11;9;
49644;PMS5003;36494;50.730;-1.932;2023-08-12T06:18:55;9;8;
49644;PMS5003;36494;50.730;-1.932;2023-08-12T06:21:20;9;8;
49644;PMS5003;36494;50.730;-1.932;2023-08-12T06:23:46;10;9;
49644;PMS5003;36494;50.730;-1.932;2023-08-12T06:26:11;7;6;
49644;PMS5003;36494;50.730;-1.932;2023-08-12T06:28:36;11;11;
49644;PMS5003;36494;50.730;-1.932;2023-08-12T06:31:02;11;8;
49644;PMS5003;36494;50.730;-1.932;2023-08-12T06:33:27;8;8;
49644;PMS5003;36494;50.730;-1.932;2023-08-12T06:35:53;10;9;
49644;PMS5003;36494;50.730;-1.932;2023-08-12T06:38:18;11;10;
49644;PMS5003;36494;50.730;-1.932;2023-08-12T06:40:44;11;10;
49644;PMS5003;36494;50.730;-1.932;2023-08-12T06:43:10;8;8;
49644;PMS5003;36494;50.730;-1.932;2023-08-12T06:45:36;8;8;
49644;PMS5003;36494;50.730;-1.932;2023-08-12T06:48:01;8;7;
49644;PMS5003;36494;50.730;-1.932;2023-08-12T06:50:26;10;7;
49644;PMS5003;36494;50.730;-1.932;2023-08-12T06:52:52;10;9;
49644;PMS5003;36494;50.730;-1.932;2023-08-12T06:55:18;10;9;
49644;PMS5003;36494;50.730;-1.932;2023-08-12T06:57:44;7;7;
49644;PMS5003;36494;50.730;-1.932;2023-08-12T07:00:09;8;7;
49644;PMS5003;36494;50.730;-1.932;2023-08-12T07:02:34;7;7;
49644;PMS5003;36494;50.730;-1.932;2023-08-12T07:05:00;12;10;
49644;PMS5003;36494;50.730;-1.932;2023-08-12T07:07:25;6;6;
49644;PMS5003;36494;50.730;-1.932;2023-08-12T07:09:51;10;10;
49644;PMS5003;36494;50.730;-1.932;2023-08-12T07:12:17;9;8;
49644;PMS5003;36494;50.730;-1.932;2023-08-12T07:14:42;9;7;
49644;PMS5003;36494;50.730;-1.932;2023-08-12T07:17:07;8;7;
49644;PMS5003;36494;50.730;-1.932;2023-08-12T07:19:33;13;12;
49644;PMS5003;36494;50.730;-1.932;2023-08-12T07:21:58;8;8;
49644;PMS5003;36494;50.730;-1.932;2023-08-12T07:24:24;8;8;
49644;PMS5003;36494;50.730;-1.932;2023-08-12T07:26:49;9;9;
49644;PMS5003;36494;50.730;-1.932;2023-08-12T07:29:15;12;11;
49644;PMS5003;36494;50.730;-1.932;2023-08-12T07:31:41;8;8;
49644;PMS5003;36494;50.730;-1.932;2023-08-12T07:34:06;9;9;
49644;PMS5003;36494;50.730;-1.932;2023-08-12T07:36:32;8;7;
49644;PMS5003;36494;50.730;-1.932;2023-08-12T07:38:57;10;9;
49644;PMS5003;36494;50.730;-1.932;2023-08-12T07:41:23;8;5;
49644;PMS5003;36494;50.730;-1.932;2023-08-12T07:43:49;10;8;
49644;PMS5003;36494;50.730;-1.932;2023-08-12T07:46:15;7;6;
49644;PMS5003;36494;50.730;-1.932;2023-08-12T07:48:40;11;10;
49644;PMS5003;36494;50.730;-1.932;2023-08-12T07:51:06;9;8;
49644;PMS5003;36494;50.730;-1.932;2023-08-12T07:53:32;8;8;
49644;PMS5003;36494;50.730;-1.932;2023-08-12T07:55:57;8;6;
49644;PMS5003;36494;50.730;-1.932;2023-08-12T07:58:23;7;7;
49644;PMS5003;36494;50.730;-1.932;2023-08-12T08:00:51;8;8;
49644;PMS5003;36494;50.730;-1.932;2023-08-12T08:03:14;7;7;
49644;PMS5003;36494;50.730;-1.932;2023-08-12T08:05:40;7;7;
49644;PMS5003;36494;50.730;-1.932;2023-08-12T08:08:05;8;8;
49644;PMS5003;36494;50.730;-1.932;2023-08-12T08:10:30;9;8;
49644;PMS5003;36494;50.730;-1.932;2023-08-12T08:12:56;8;7;
49644;PMS5003;36494;50.730;-1.932;2023-08-12T08:15:22;9;7;
49644;PMS5003;36494;50.730;-1.932;2023-08-12T08:17:47;10;8;
49644;PMS5003;36494;50.730;-1.932;2023-08-12T08:20:13;8;8;
49644;PMS5003;36494;50.730;-1.932;2023-08-12T08:22:38;12;10;
49644;PMS5003;36494;50.730;-1.932;2023-08-12T08:25:04;10;10;
49644;PMS5003;36494;50.730;-1.932;2023-08-12T08:27:29;10;10;
49644;PMS5003;36494;50.730;-1.932;2023-08-12T08:29:55;8;7;
49644;PMS5003;36494;50.730;-1.932;2023-08-12T08:32:20;11;9;
49644;PMS5003;36494;50.730;-1.932;2023-08-12T08:34:46;11;11;
49644;PMS5003;36494;50.730;-1.932;2023-08-12T08:37:11;7;7;
49644;PMS5003;36494;50.730;-1.932;2023-08-12T08:39:37;8;6;
49644;PMS5003;36494;50.730;-1.932;2023-08-12T08:42:02;8;6;
49644;PMS5003;36494;50.730;-1.932;2023-08-12T08:44:28;8;7;
49644;PMS5003;36494;50.730;-1.932;2023-08-12T08:46:53;7;6;
49644;PMS5003;36494;50.730;-1.932;2023-08-12T08:49:19;11;9;
49644;PMS5003;36494;50.730;-1.932;2023-08-12T08:51:44;9;9;
49644;PMS5003;36494;50.730;-1.932;2023-08-12T08:54:10;5;5;
49644;PMS5003;36494;50.730;-1.932;2023-08-12T08:56:35;6;5;
49644;PMS5003;36494;50.730;-1.932;2023-08-12T08:59:01;6;6;
49644;PMS5003;36494;50.730;-1.932;2023-08-12T09:01:26;7;6;
49644;PMS5003;36494;50.730;-1.932;2023-08-12T09:03:51;9;7;
49644;PMS5003;36494;50.730;-1.932;2023-08-12T09:06:17;7;7;
49644;PMS5003;36494;50.730;-1.932;2023-08-12T09:08:43;6;6;
49644;PMS5003;36494;50.730;-1.932;2023-08-12T09:11:08;10;9;
49644;PMS5003;36494;50.730;-1.932;2023-08-12T09:13:33;6;5;
49644;PMS5003;36494;50.730;-1.932;2023-08-12T09:15:58;6;5;
49644;PMS5003;36494;50.730;-1.932;2023-08-12T09:18:25;5;5;
49644;PMS5003;36494;50.730;-1.932;2023-08-12T09:20:50;4;4;
49644;PMS5003;36494;50.730;-1.932;2023-08-12T09:23:15;5;3;
49644;PMS5003;36494;50.730;-1.932;2023-08-12T09:25:41;6;4;
49644;PMS5003;36494;50.730;-1.932;2023-08-12T09:28:07;3;3;
49644;PMS5003;36494;50.730;-1.932;2023-08-12T09:30:32;2;2;
49644;PMS5003;36494;50.730;-1.932;2023-08-12T09:32:58;6;6;
49644;PMS5003;36494;50.730;-1.932;2023-08-12T09:35:23;6;5;
49644;PMS5003;36494;50.730;-1.932;2023-08-12T09:37:48;7;5;
49644;PMS5003;36494;50.730;-1.932;2023-08-12T09:40:13;7;6;
49644;PMS5003;36494;50.730;-1.932;2023-08-12T09:42:43;2;2;
49644;PMS5003;36494;50.730;-1.932;2023-08-12T09:45:05;6;5;
49644;PMS5003;36494;50.730;-1.932;2023-08-12T09:47:30;6;6;
49644;PMS5003;36494;50.730;-1.932;2023-08-12T09:49:55;4;4;
49644;PMS5003;36494;50.730;-1.932;2023-08-12T09:52:21;6;5;
49644;PMS5003;36494;50.730;-1.932;2023-08-12T09:54:46;10;10;
49644;PMS5003;36494;50.730;-1.932;2023-08-12T09:57:11;6;6;
49644;PMS5003;36494;50.730;-1.932;2023-08-12T09:59:37;6;6;
49644;PMS5003;36494;50.730;-1.932;2023-08-12T10:02:03;5;3;
49644;PMS5003;36494;50.730;-1.932;2023-08-12T10:04:28;6;4;
49644;PMS5003;36494;50.730;-1.932;2023-08-12T10:06:54;7;7;
49644;PMS5003;36494;50.730;-1.932;2023-08-12T10:09:19;5;5;
49644;PMS5003;36494;50.730;-1.932;2023-08-12T10:11:45;8;7;
49644;PMS5003;36494;50.730;-1.932;2023-08-12T10:14:10;4;4;
49644;PMS5003;36494;50.730;-1.932;2023-08-12T10:16:36;8;7;
49644;PMS5003;36494;50.730;-1.932;2023-08-12T10:19:01;10;7;
49644;PMS5003;36494;50.730;-1.932;2023-08-12T10:21:26;5;5;
49644;PMS5003;36494;50.730;-1.932;2023-08-12T10:23:52;9;7;
49644;PMS5003;36494;50.730;-1.932;2023-08-12T10:26:17;6;6;
49644;PMS5003;36494;50.730;-1.932;2023-08-12T10:28:42;8;8;
49644;PMS5003;36494;50.730;-1.932;2023-08-12T10:31:08;7;6;
49644;PMS5003;36494;50.730;-1.932;2023-08-12T10:33:35;6;6;
49644;PMS5003;36494;50.730;-1.932;2023-08-12T10:35:58;7;7;
49644;PMS5003;36494;50.730;-1.932;2023-08-12T10:38:24;7;6;
49644;PMS5003;36494;50.730;-1.932;2023-08-12T10:40:50;9;8;
49644;PMS5003;36494;50.730;-1.932;2023-08-12T10:43:15;8;8;
49644;PMS5003;36494;50.730;-1.932;2023-08-12T10:45:41;6;6;
49644;PMS5003;36494;50.730;-1.932;2023-08-12T10:48:11;17;15;
49644;PMS5003;36494;50.730;-1.932;2023-08-12T10:50:32;9;8;
49644;PMS5003;36494;50.730;-1.932;2023-08-12T10:52:58;6;6;
49644;PMS5003;36494;50.730;-1.932;2023-08-12T10:55:24;10;8;
49644;PMS5003;36494;50.730;-1.932;2023-08-12T10:57:50;6;6;
49644;PMS5003;36494;50.730;-1.932;2023-08-12T11:00:15;7;6;
49644;PMS5003;36494;50.730;-1.932;2023-08-12T11:02:40;4;4;
49644;PMS5003;36494;50.730;-1.932;2023-08-12T11:05:07;4;3;
49644;PMS5003;36494;50.730;-1.932;2023-08-12T11:07:32;6;5;
49644;PMS5003;36494;50.730;-1.932;2023-08-12T11:09:58;3;3;
49644;PMS5003;36494;50.730;-1.932;2023-08-12T11:12:28;2;2;
49644;PMS5003;36494;50.730;-1.932;2023-08-12T11:14:48;7;6;
49644;PMS5003;36494;50.730;-1.932;2023-08-12T11:17:13;5;5;
49644;PMS5003;36494;50.730;-1.932;2023-08-12T11:19:38;9;7;
49644;PMS5003;36494;50.730;-1.932;2023-08-12T11:22:03;4;4;
49644;PMS5003;36494;50.730;-1.932;2023-08-12T11:24:29;7;7;
49644;PMS5003;36494;50.730;-1.932;2023-08-12T11:26:55;8;5;
49644;PMS5003;36494;50.730;-1.932;2023-08-12T11:29:21;5;3;
49644;PMS5003;36494;50.730;-1.932;2023-08-12T11:31:46;6;5;
49644;PMS5003;36494;50.730;-1.932;2023-08-12T11:34:11;5;5;
49644;PMS5003;36494;50.730;-1.932;2023-08-12T11:36:37;4;4;
49644;PMS5003;36494;50.730;-1.932;2023-08-12T11:39:02;3;3;
49644;PMS5003;36494;50.730;-1.932;2023-08-12T11:41:27;4;4;
49644;PMS5003;36494;50.730;-1.932;2023-08-12T11:43:52;3;3;
49644;PMS5003;36494;50.730;-1.932;2023-08-12T11:46:17;4;4;
49644;PMS5003;36494;50.730;-1.932;2023-08-12T11:48:43;7;6;
49644;PMS5003;36494;50.730;-1.932;2023-08-12T11:51:08;6;5;
49644;PMS5003;36494;50.730;-1.932;2023-08-12T11:53:33;9;8;
49644;PMS5003;36494;50.730;-1.932;2023-08-12T11:55:59;5;5;
49644;PMS5003;36494;50.730;-1.932;2023-08-12T11:58:24;5;5;
49644;PMS5003;36494;50.730;-1.932;2023-08-12T12:00:50;6;5;
49644;PMS5003;36494;50.730;-1.932;2023-08-12T12:03:16;7;5;
49644;PMS5003;36494;50.730;-1.932;2023-08-12T12:05:41;4;4;
49644;PMS5003;36494;50.730;-1.932;2023-08-12T12:08:06;7;5;
49644;PMS5003;36494;50.730;-1.932;2023-08-12T12:10:32;10;9;
49644;PMS5003;36494;50.730;-1.932;2023-08-12T12:12:57;5;5;
49644;PMS5003;36494;50.730;-1.932;2023-08-12T12:15:22;6;5;
49644;PMS5003;36494;50.730;-1.932;2023-08-12T12:17:48;5;5;
49644;PMS5003;36494;50.730;-1.932;2023-08-12T12:20:12;5;5;
49644;PMS5003;36494;50.730;-1.932;2023-08-12T12:22:38;8;7;
49644;PMS5003;36494;50.730;-1.932;2023-08-12T12:25:05;4;4;
49644;PMS5003;36494;50.730;-1.932;2023-08-12T12:27:28;5;5;
49644;PMS5003;36494;50.730;-1.932;2023-08-12T12:29:54;5;4;
49644;PMS5003;36494;50.730;-1.932;2023-08-12T12:32:19;4;4;
49644;PMS5003;36494;50.730;-1.932;2023-08-12T12:34:45;6;5;
49644;PMS5003;36494;50.730;-1.932;2023-08-12T12:37:10;6;4;
49644;PMS5003;36494;50.730;-1.932;2023-08-12T12:39:36;9;8;
49644;PMS5003;36494;50.730;-1.932;2023-08-12T12:42:01;6;4;
49644;PMS5003;36494;50.730;-1.932;2023-08-12T12:44:26;4;4;
49644;PMS5003;36494;50.730;-1.932;2023-08-12T12:46:52;7;6;
49644;PMS5003;36494;50.730;-1.932;2023-08-12T12:49:18;7;6;
49644;PMS5003;36494;50.730;-1.932;2023-08-12T12:51:43;7;7;
49644;PMS5003;36494;50.730;-1.932;2023-08-12T12:54:08;4;4;
49644;PMS5003;36494;50.730;-1.932;2023-08-12T12:56:33;4;3;
49644;PMS5003;36494;50.730;-1.932;2023-08-12T12:58:59;4;4;
49644;PMS5003;36494;50.730;-1.932;2023-08-12T13:01:24;4;4;
49644;PMS5003;36494;50.730;-1.932;2023-08-12T13:03:49;7;6;
49644;PMS5003;36494;50.730;-1.932;2023-08-12T13:06:14;3;2;
49644;PMS5003;36494;50.730;-1.932;2023-08-12T13:08:40;6;5;
49644;PMS5003;36494;50.730;-1.932;2023-08-12T13:11:06;5;4;
49644;PMS5003;36494;50.730;-1.932;2023-08-12T13:13:32;4;4;
49644;PMS5003;36494;50.730;-1.932;2023-08-12T13:15:58;5;4;
49644;PMS5003;36494;50.730;-1.932;2023-08-12T13:18:23;4;4;
49644;PMS5003;36494;50.730;-1.932;2023-08-12T13:20:49;5;4;
49644;PMS5003;36494;50.730;-1.932;2023-08-12T13:23:14;5;5;
49644;PMS5003;36494;50.730;-1.932;2023-08-12T13:25:40;2;2;
49644;PMS5003;36494;50.730;-1.932;2023-08-12T13:28:05;4;4;
49644;PMS5003;36494;50.730;-1.932;2023-08-12T13:30:30;6;5;
49644;PMS5003;36494;50.730;-1.932;2023-08-12T13:32:55;5;5;
49644;PMS5003;36494;50.730;-1.932;2023-08-12T13:35:21;8;7;
49644;PMS5003;36494;50.730;-1.932;2023-08-12T13:37:46;5;4;
49644;PMS5003;36494;50.730;-1.932;2023-08-12T13:40:12;5;5;
49644;PMS5003;36494;50.730;-1.932;2023-08-12T13:42:37;5;5;
49644;PMS5003;36494;50.730;-1.932;2023-08-12T13:45:03;7;6;
49644;PMS5003;36494;50.730;-1.932;2023-08-12T13:47:29;5;5;
49644;PMS5003;36494;50.730;-1.932;2023-08-12T13:49:55;6;6;
49644;PMS5003;36494;50.730;-1.932;2023-08-12T13:52:20;4;3;
49644;PMS5003;36494;50.730;-1.932;2023-08-12T13:54:46;6;6;
49644;PMS5003;36494;50.730;-1.932;2023-08-12T13:57:11;4;4;
49644;PMS5003;36494;50.730;-1.932;2023-08-12T13:59:36;6;6;
49644;PMS5003;36494;50.730;-1.932;2023-08-12T14:02:01;4;4;
49644;PMS5003;36494;50.730;-1.932;2023-08-12T14:04:27;6;5;
49644;PMS5003;36494;50.730;-1.932;2023-08-12T14:06:52;9;8;
49644;PMS5003;36494;50.730;-1.932;2023-08-12T14:09:17;7;7;
49644;PMS5003;36494;50.730;-1.932;2023-08-12T14:11:42;6;6;
49644;PMS5003;36494;50.730;-1.932;2023-08-12T14:14:08;6;5;
49644;PMS5003;36494;50.730;-1.932;2023-08-12T14:16:34;6;6;
49644;PMS5003;36494;50.730;-1.932;2023-08-12T14:18:59;6;4;
49644;PMS5003;36494;50.730;-1.932;2023-08-12T14:21:25;8;5;
49644;PMS5003;36494;50.730;-1.932;2023-08-12T14:23:50;11;9;
49644;PMS5003;36494;50.730;-1.932;2023-08-12T14:26:16;8;8;
49644;PMS5003;36494;50.730;-1.932;2023-08-12T14:28:41;4;3;
49644;PMS5003;36494;50.730;-1.932;2023-08-12T14:31:07;5;5;
49644;PMS5003;36494;50.730;-1.932;2023-08-12T14:33:32;6;5;
49644;PMS5003;36494;50.730;-1.932;2023-08-12T14:35:57;3;3;
49644;PMS5003;36494;50.730;-1.932;2023-08-12T14:38:22;4;4;
49644;PMS5003;36494;50.730;-1.932;2023-08-12T14:40:48;3;3;
49644;PMS5003;36494;50.730;-1.932;2023-08-12T14:43:13;4;4;
49644;PMS5003;36494;50.730;-1.932;2023-08-12T14:45:38;4;4;
49644;PMS5003;36494;50.730;-1.932;2023-08-12T14:48:04;2;2;
49644;PMS5003;36494;50.730;-1.932;2023-08-12T14:50:30;3;2;
49644;PMS5003;36494;50.730;-1.932;2023-08-12T14:52:55;1;1;
49644;PMS5003;36494;50.730;-1.932;2023-08-12T14:55:20;3;3;
49644;PMS5003;36494;50.730;-1.932;2023-08-12T14:57:46;1;1;
49644;PMS5003;36494;50.730;-1.932;2023-08-12T15:00:12;1;1;
49644;PMS5003;36494;50.730;-1.932;2023-08-12T15:02:37;3;3;
49644;PMS5003;36494;50.730;-1.932;2023-08-12T15:05:02;3;3;
49644;PMS5003;36494;50.730;-1.932;2023-08-12T15:07:28;7;6;
49644;PMS5003;36494;50.730;-1.932;2023-08-12T15:09:53;4;4;
49644;PMS5003;36494;50.730;-1.932;2023-08-12T15:12:19;4;4;
49644;PMS5003;36494;50.730;-1.932;2023-08-12T15:14:44;2;2;
49644;PMS5003;36494;50.730;-1.932;2023-08-12T15:17:09;3;3;
49644;PMS5003;36494;50.730;-1.932;2023-08-12T15:19:35;3;3;
49644;PMS5003;36494;50.730;-1.932;2023-08-12T15:22:01;5;4;
49644;PMS5003;36494;50.730;-1.932;2023-08-12T15:24:27;4;4;
49644;PMS5003;36494;50.730;-1.932;2023-08-12T15:26:52;3;3;
49644;PMS5003;36494;50.730;-1.932;2023-08-12T15:29:18;6;5;
49644;PMS5003;36494;50.730;-1.932;2023-08-12T15:31:43;5;4;
49644;PMS5003;36494;50.730;-1.932;2023-08-12T15:34:08;6;5;
49644;PMS5003;36494;50.730;-1.932;2023-08-12T15:36:33;5;3;
49644;PMS5003;36494;50.730;-1.932;2023-08-12T15:38:58;2;1;
49644;PMS5003;36494;50.730;-1.932;2023-08-12T15:41:24;3;3;
49644;PMS5003;36494;50.730;-1.932;2023-08-12T15:43:49;2;2;
49644;PMS5003;36494;50.730;-1.932;2023-08-12T15:46:14;4;3;
49644;PMS5003;36494;50.730;-1.932;2023-08-12T15:48:40;3;2;
49644;PMS5003;36494;50.730;-1.932;2023-08-12T15:51:05;5;4;
49644;PMS5003;36494;50.730;-1.932;2023-08-12T15:53:31;2;2;
49644;PMS5003;36494;50.730;-1.932;2023-08-12T15:55:57;5;4;
49644;PMS5003;36494;50.730;-1.932;2023-08-12T15:58:22;4;4;
49644;PMS5003;36494;50.730;-1.932;2023-08-12T16:00:48;3;3;
49644;PMS5003;36494;50.730;-1.932;2023-08-12T16:03:13;3;3;
49644;PMS5003;36494;50.730;-1.932;2023-08-12T16:05:39;2;2;
49644;PMS5003;36494;50.730;-1.932;2023-08-12T16:08:04;2;2;
49644;PMS5003;36494;50.730;-1.932;2023-08-12T16:10:29;5;4;
49644;PMS5003;36494;50.730;-1.932;2023-08-12T16:12:54;5;4;
49644;PMS5003;36494;50.730;-1.932;2023-08-12T16:15:20;3;3;